createdAt,value
2022-09-10T00:00:56.513Z,18.00
2022-09-10T00:03:43.516Z,18.00
2022-09-10T00:06:29.598Z,17.90
2022-09-10T00:09:15.013Z,17.90
2022-09-10T00:12:00.163Z,17.80
2022-09-10T00:14:46.032Z,17.80
2022-09-10T00:17:32.787Z,17.80
2022-09-10T00:20:18.093Z,17.80
2022-09-10T00:23:03.385Z,17.80
2022-09-10T00:25:49.264Z,17.80
2022-09-10T00:28:34.860Z,17.80
2022-09-10T00:31:21.810Z,17.70
2022-09-10T00:34:07.467Z,17.70
2022-09-10T00:36:53.010Z,17.70
2022-09-10T00:39:38.538Z,17.70
2022-09-10T00:42:23.731Z,17.80
2022-09-10T00:45:20.122Z,17.90
2022-09-10T00:48:11.509Z,18.00
2022-09-10T00:51:05.777Z,18.00
2022-09-10T00:53:51.158Z,18.00
2022-09-10T00:56:37.187Z,18.10
2022-09-10T00:59:26.537Z,18.00
2022-09-10T01:02:12.186Z,18.00
2022-09-10T01:05:00.569Z,18.00
2022-09-10T01:07:46.028Z,18.00
2022-09-10T01:10:39.293Z,18.00
2022-09-10T01:13:33.226Z,18.00
2022-09-10T01:16:25.359Z,18.10
2022-09-10T01:19:28.289Z,18.00
2022-09-10T01:22:32.469Z,18.00
2022-09-10T01:25:39.646Z,17.90
2022-09-10T01:28:37.471Z,18.00
2022-09-10T01:31:27.715Z,18.00
2022-09-10T01:34:29.706Z,17.90
2022-09-10T01:37:24.435Z,17.90
2022-09-10T01:40:11.206Z,17.90
2022-09-10T01:43:01.829Z,18.00
2022-09-10T01:46:00.954Z,18.00
2022-09-10T01:49:15.048Z,18.10
2022-09-10T01:52:15.304Z,18.20
2022-09-10T01:55:22.362Z,18.10
2022-09-10T01:58:33.500Z,18.00
2022-09-10T02:01:34.815Z,18.10
2022-09-10T02:04:22.295Z,18.10
2022-09-10T02:07:08.617Z,18.00
2022-09-10T02:09:55.457Z,18.00
2022-09-10T02:12:40.797Z,18.10
2022-09-10T02:15:28.660Z,18.00
2022-09-10T02:18:13.947Z,17.90
2022-09-10T02:21:02.725Z,17.80
2022-09-10T02:23:53.419Z,17.80
2022-09-10T02:26:44.099Z,17.70
2022-09-10T02:29:29.417Z,17.60
2022-09-10T02:32:14.352Z,17.50
2022-09-10T02:34:59.787Z,17.60
2022-09-10T02:37:45.072Z,17.60
2022-09-10T02:40:31.734Z,17.60
2022-09-10T02:43:17.676Z,17.70
2022-09-10T02:46:03.558Z,17.60
2022-09-10T02:48:48.739Z,17.70
2022-09-10T02:51:33.997Z,17.70
2022-09-10T02:54:22.560Z,17.70
2022-09-10T02:57:08.173Z,17.70
2022-09-10T02:59:53.986Z,17.60
2022-09-10T03:02:40.253Z,17.50
2022-09-10T03:05:25.295Z,17.60
2022-09-10T03:08:10.904Z,17.50
2022-09-10T03:10:57.912Z,17.50
2022-09-10T03:13:45.892Z,17.40
2022-09-10T03:16:31.019Z,17.20
2022-09-10T03:19:17.403Z,17.20
2022-09-10T03:22:03.016Z,17.30
2022-09-10T03:24:48.195Z,17.40
2022-09-10T03:27:33.545Z,17.30
2022-09-10T03:30:21.762Z,17.20
2022-09-10T03:33:07.784Z,17.20
2022-09-10T03:35:54.181Z,17.20
2022-09-10T03:38:40.193Z,17.30
2022-09-10T03:41:28.278Z,17.40
2022-09-10T03:44:14.168Z,17.40
2022-09-10T03:47:00.962Z,17.40
2022-09-10T03:49:45.988Z,17.40
2022-09-10T03:52:31.444Z,17.40
2022-09-10T03:55:17.866Z,17.50
2022-09-10T03:58:03.279Z,17.50
2022-09-10T04:00:49.470Z,17.50
2022-09-10T04:03:34.828Z,17.40
2022-09-10T04:06:20.177Z,17.20
2022-09-10T04:09:05.652Z,17.20
2022-09-10T04:11:50.901Z,17.30
2022-09-10T04:14:36.207Z,17.40
2022-09-10T04:17:21.720Z,17.30
2022-09-10T04:20:07.919Z,17.30
2022-09-10T04:22:53.899Z,17.20
2022-09-10T04:25:39.234Z,17.20
2022-09-10T04:28:24.757Z,17.20
2022-09-10T04:31:10.886Z,17.20
2022-09-10T04:33:56.277Z,17.10
2022-09-10T04:36:41.778Z,17.00
2022-09-10T04:39:27.068Z,17.20
2022-09-10T04:42:15.060Z,17.20
2022-09-10T04:45:00.472Z,17.20
2022-09-10T04:47:49.450Z,17.30
2022-09-10T04:50:35.572Z,17.30
2022-09-10T04:53:21.607Z,17.20
2022-09-10T04:56:07.582Z,17.10
2022-09-10T04:58:52.809Z,17.00
2022-09-10T05:01:38.294Z,17.10
2022-09-10T05:04:24.232Z,17.20
2022-09-10T05:07:09.648Z,17.10
2022-09-10T05:09:55.173Z,17.20
2022-09-10T05:12:40.160Z,17.20
2022-09-10T05:15:25.575Z,17.30
2022-09-10T05:18:10.985Z,17.40
2022-09-10T05:20:56.299Z,17.40
2022-09-10T05:23:41.728Z,17.30
2022-09-10T05:26:27.795Z,17.30
2022-09-10T05:29:14.013Z,17.40
2022-09-10T05:31:59.106Z,17.20
2022-09-10T05:34:48.456Z,17.20
2022-09-10T05:37:34.270Z,17.10
2022-09-10T05:40:20.888Z,17.10
2022-09-10T05:43:07.195Z,16.90
2022-09-10T05:45:52.905Z,17.00
2022-09-10T05:48:41.748Z,17.10
2022-09-10T05:51:29.839Z,17.10
2022-09-10T05:54:16.175Z,17.20
2022-09-10T05:57:01.782Z,17.30
2022-09-10T05:59:47.149Z,17.30
2022-09-10T06:02:33.460Z,17.30
2022-09-10T06:05:22.741Z,17.40
2022-09-10T06:08:08.990Z,17.40
2022-09-10T06:11:04.298Z,17.30
2022-09-10T06:13:49.669Z,17.30
2022-09-10T06:16:34.850Z,17.30
2022-09-10T06:19:20.941Z,17.40
2022-09-10T06:22:06.389Z,17.40
2022-09-10T06:24:51.725Z,17.40
2022-09-10T06:27:37.569Z,17.40
2022-09-10T06:30:22.691Z,17.30
2022-09-10T06:33:07.769Z,17.40
2022-09-10T06:35:58.048Z,17.20
2022-09-10T06:38:45.010Z,17.30
2022-09-10T06:41:31.059Z,17.30
2022-09-10T06:44:16.241Z,17.30
2022-09-10T06:47:42.771Z,17.40
2022-09-10T06:50:08.033Z,17.40
2022-09-10T06:52:54.040Z,17.40
2022-09-10T06:55:39.120Z,17.50
2022-09-10T06:58:24.687Z,17.60
2022-09-10T07:01:21.544Z,17.70
2022-09-10T07:04:06.864Z,17.60
2022-09-10T07:06:52.664Z,17.70
2022-09-10T07:09:37.615Z,17.60
2022-09-10T07:12:22.949Z,17.60
2022-09-10T07:15:08.859Z,17.60
2022-09-10T07:17:54.798Z,17.60
2022-09-10T07:20:44.252Z,17.70
2022-09-10T07:23:29.373Z,17.60
2022-09-10T07:26:17.133Z,17.60
2022-09-10T07:29:02.637Z,17.70
2022-09-10T07:31:48.231Z,17.80
2022-09-10T07:34:33.901Z,17.70
2022-09-10T07:37:19.086Z,17.70
2022-09-10T07:40:05.242Z,17.80
2022-09-10T07:42:50.599Z,17.80
2022-09-10T07:45:36.114Z,17.80
2022-09-10T07:48:21.640Z,17.70
2022-09-10T07:51:08.706Z,17.70
2022-09-10T07:53:56.376Z,17.60
2022-09-10T07:56:42.606Z,17.70
2022-09-10T07:59:27.959Z,17.50
2022-09-10T08:02:15.305Z,17.60
2022-09-10T08:05:01.165Z,17.50
2022-09-10T08:07:46.601Z,17.50
2022-09-10T08:10:31.772Z,17.50
2022-09-10T08:13:17.301Z,17.30
2022-09-10T08:16:10.909Z,17.40
2022-09-10T08:19:00.142Z,17.50
2022-09-10T08:21:45.587Z,17.50
2022-09-10T08:24:31.297Z,17.40
2022-09-10T08:27:17.707Z,17.50
2022-09-10T08:30:02.966Z,17.30
2022-09-10T08:32:48.948Z,17.30
2022-09-10T08:35:34.297Z,17.40
2022-09-10T08:38:20.139Z,17.40
2022-09-10T08:41:17.429Z,17.40
2022-09-10T08:44:08.874Z,17.40
2022-09-10T08:47:13.507Z,17.60
2022-09-10T08:50:02.378Z,17.60
2022-09-10T08:52:52.754Z,17.60
2022-09-10T08:55:41.353Z,17.50
2022-09-10T08:58:54.309Z,17.40
2022-09-10T09:01:47.558Z,17.50
2022-09-10T09:04:52.752Z,17.50
2022-09-10T09:07:40.223Z,17.50
2022-09-10T09:10:25.222Z,17.60
2022-09-10T09:13:37.909Z,17.70
2022-09-10T09:16:29.232Z,17.60
2022-09-10T09:19:26.255Z,17.60
2022-09-10T09:22:18.945Z,17.80
2022-09-10T09:25:32.704Z,17.90
2022-09-10T09:28:43.462Z,17.80
2022-09-10T09:31:37.882Z,17.90
2022-09-10T09:34:34.470Z,18.20
2022-09-10T09:37:24.857Z,18.20
2022-09-10T09:40:13.577Z,18.30
2022-09-10T09:43:04.793Z,18.30
2022-09-10T09:45:53.367Z,18.40
2022-09-10T09:48:41.219Z,18.40
2022-09-10T09:51:30.602Z,18.60
2022-09-10T09:54:56.923Z,18.80
2022-09-10T09:57:27.711Z,18.90
2022-09-10T10:00:35.960Z,18.90
2022-09-10T10:03:33.640Z,19.00
2022-09-10T10:06:28.502Z,19.30
2022-09-10T10:09:21.374Z,19.60
2022-09-10T10:12:09.223Z,19.40
2022-09-10T10:14:54.428Z,19.30
2022-09-10T10:17:40.622Z,19.20
2022-09-10T10:20:38.779Z,19.20
2022-09-10T10:23:38.909Z,19.00
2022-09-10T10:26:28.318Z,18.90
2022-09-10T10:29:20.999Z,18.80
2022-09-10T10:32:16.109Z,18.70
2022-09-10T10:35:22.931Z,18.70
2022-09-10T10:38:30.035Z,18.60
2022-09-10T10:42:04.381Z,18.20
2022-09-10T10:45:08.652Z,18.00
2022-09-10T10:48:09.877Z,18.10
2022-09-10T10:51:06.937Z,18.00
2022-09-10T10:54:29.655Z,18.00
2022-09-10T10:57:43.195Z,18.20
2022-09-10T11:00:36.137Z,18.20
2022-09-10T11:03:36.175Z,18.20
2022-09-10T11:06:25.682Z,18.40
2022-09-10T11:09:31.352Z,18.80
2022-09-10T11:12:28.577Z,19.10
2022-09-10T11:15:33.283Z,19.40
2022-09-10T11:18:23.921Z,19.50
2022-09-10T11:21:17.668Z,19.40
2022-09-10T11:24:18.787Z,19.30
2022-09-10T11:27:18.585Z,19.10
2022-09-10T11:30:12.231Z,18.90
2022-09-10T11:33:09.331Z,18.50
2022-09-10T11:36:10.966Z,18.20
2022-09-10T11:39:29.329Z,18.20
2022-09-10T11:42:28.887Z,18.10
2022-09-10T11:45:31.092Z,18.10
2022-09-10T11:48:23.513Z,18.00
2022-09-10T11:51:36.932Z,18.10
2022-09-10T11:54:28.333Z,18.10
2022-09-10T11:57:34.817Z,18.00
2022-09-10T12:00:20.402Z,18.10
2022-09-10T12:03:27.129Z,18.20
2022-09-10T12:06:22.201Z,18.30
2022-09-10T12:09:39.053Z,18.30
2022-09-10T12:12:42.959Z,18.40
2022-09-10T12:15:36.986Z,18.60
2022-09-10T12:18:30.591Z,18.90
2022-09-10T12:21:34.531Z,19.30
2022-09-10T12:24:33.176Z,19.50
2022-09-10T12:27:20.217Z,19.60
2022-09-10T12:30:33.259Z,19.70
2022-09-10T12:33:22.189Z,19.80
2022-09-10T12:36:07.471Z,19.80
2022-09-10T12:39:17.648Z,19.80
2022-09-10T12:42:23.110Z,20.30
2022-09-10T12:45:09.040Z,20.40
2022-09-10T12:47:54.495Z,20.30
2022-09-10T12:50:46.030Z,20.30
2022-09-10T12:53:50.337Z,20.10
2022-09-10T12:56:55.631Z,20.10
2022-09-10T13:00:22.093Z,20.00
2022-09-10T13:03:07.623Z,19.90
2022-09-10T13:05:56.519Z,19.70
2022-09-10T13:08:44.972Z,19.50
2022-09-10T13:11:35.744Z,19.60
2022-09-10T13:14:27.204Z,20.30
2022-09-10T13:17:47.820Z,20.50
2022-09-10T13:20:35.464Z,20.70
2022-09-10T13:23:47.855Z,20.80
2022-09-10T13:26:47.229Z,20.80
2022-09-10T13:29:36.440Z,20.50
2022-09-10T13:32:37.621Z,20.20
2022-09-10T13:36:01.748Z,19.90
2022-09-10T13:39:14.415Z,19.70
2022-09-10T13:42:27.579Z,19.40
2022-09-10T13:45:21.766Z,19.20
2022-09-10T13:48:17.693Z,19.10
2022-09-10T13:51:31.192Z,19.30
2022-09-10T13:54:35.565Z,19.60
2022-09-10T13:57:40.986Z,19.80
2022-09-10T14:00:32.004Z,20.30
2022-09-10T14:03:35.203Z,20.70
2022-09-10T14:06:23.243Z,21.40
2022-09-10T14:09:14.865Z,21.60
2022-09-10T14:12:06.445Z,21.80
2022-09-10T14:14:55.487Z,21.80
2022-09-10T14:17:47.885Z,21.70
2022-09-10T14:20:35.929Z,21.60
2022-09-10T14:23:29.699Z,21.50
2022-09-10T14:26:24.473Z,21.50
2022-09-10T14:29:25.801Z,21.80
2022-09-10T14:32:31.579Z,21.90
2022-09-10T14:35:43.048Z,21.80
2022-09-10T14:38:34.079Z,21.50
2022-09-10T14:41:24.838Z,21.40
2022-09-10T14:44:29.560Z,21.20
2022-09-10T14:47:26.353Z,21.00
2022-09-10T14:50:28.354Z,20.80
2022-09-10T14:53:13.743Z,20.70
2022-09-10T14:55:59.185Z,20.60
2022-09-10T14:58:45.888Z,20.70
2022-09-10T15:01:31.659Z,20.60
2022-09-10T15:04:26.647Z,20.60
2022-09-10T15:07:13.444Z,20.40
2022-09-10T15:09:59.113Z,20.30
2022-09-10T15:12:49.707Z,20.10
2022-09-10T15:15:35.017Z,20.00
2022-09-10T15:18:20.293Z,20.00
2022-09-10T15:21:07.326Z,20.10
2022-09-10T15:23:52.844Z,20.10
2022-09-10T15:26:38.360Z,20.20
2022-09-10T15:29:26.114Z,20.20
2022-09-10T15:32:12.545Z,20.10
2022-09-10T15:34:57.893Z,20.10
2022-09-10T15:37:43.390Z,20.20
2022-09-10T15:40:28.856Z,20.10
2022-09-10T15:43:14.493Z,20.10
2022-09-10T15:46:02.048Z,20.10
2022-09-10T15:48:47.507Z,20.00
2022-09-10T15:51:32.814Z,19.90
2022-09-10T15:54:17.987Z,20.00
2022-09-10T15:57:03.644Z,20.10
2022-09-10T15:59:49.290Z,19.90
2022-09-10T16:02:34.630Z,19.60
2022-09-10T16:05:23.643Z,19.50
2022-09-10T16:08:08.751Z,19.50
2022-09-10T16:10:54.833Z,19.30
2022-09-10T16:13:40.315Z,19.20
2022-09-10T16:16:26.862Z,19.00
2022-09-10T16:19:13.290Z,19.00
2022-09-10T16:21:58.765Z,19.00
2022-09-10T16:24:44.423Z,19.10
2022-09-10T16:27:29.856Z,19.00
2022-09-10T16:30:15.163Z,19.00
2022-09-10T16:33:00.778Z,19.00
2022-09-10T16:35:47.601Z,18.90
2022-09-10T16:38:32.699Z,19.00
2022-09-10T16:41:18.014Z,19.00
2022-09-10T16:44:03.403Z,18.90
2022-09-10T16:46:49.765Z,19.00
2022-09-10T16:49:35.056Z,18.90
2022-09-10T16:52:20.556Z,18.90
2022-09-10T16:55:06.946Z,18.80
2022-09-10T16:57:52.851Z,18.80
2022-09-10T17:00:40.310Z,18.90
2022-09-10T17:03:29.820Z,19.00
2022-09-10T17:06:18.204Z,18.90
2022-09-10T17:09:04.297Z,18.90
2022-09-10T17:11:49.372Z,18.90
2022-09-10T17:14:34.725Z,18.90
2022-09-10T17:17:20.075Z,18.80
2022-09-10T17:20:07.325Z,18.80
2022-09-10T17:22:52.391Z,18.70
2022-09-10T17:25:37.958Z,18.70
2022-09-10T17:28:23.244Z,18.70
2022-09-10T17:31:08.661Z,18.80
2022-09-10T17:33:55.548Z,18.70
2022-09-10T17:36:43.057Z,18.70
2022-09-10T17:39:29.242Z,18.70
2022-09-10T17:42:15.024Z,18.70
2022-09-10T17:45:04.727Z,18.80
2022-09-10T17:47:49.739Z,18.60
2022-09-10T17:50:35.567Z,18.70
2022-09-10T17:53:21.088Z,18.70
2022-09-10T17:56:08.660Z,18.70
2022-09-10T17:59:02.552Z,18.70
2022-09-10T18:01:48.124Z,18.70
2022-09-10T18:04:33.517Z,18.70
2022-09-10T18:07:18.911Z,18.60
2022-09-10T18:10:05.092Z,18.60
2022-09-10T18:12:50.143Z,18.60
2022-09-10T18:15:42.139Z,18.60
2022-09-10T18:18:27.991Z,18.60
2022-09-10T18:21:19.366Z,18.60
2022-09-10T18:24:14.404Z,18.50
2022-09-10T18:27:04.244Z,18.50
2022-09-10T18:29:49.636Z,18.50
2022-09-10T18:32:35.161Z,18.50
2022-09-10T18:35:20.949Z,18.40
2022-09-10T18:38:06.204Z,18.50
2022-09-10T18:40:52.281Z,18.50
2022-09-10T18:43:38.375Z,18.50
2022-09-10T18:46:24.261Z,18.50
2022-09-10T18:49:15.770Z,18.50
2022-09-10T18:52:03.835Z,18.50
2022-09-10T18:54:49.428Z,18.50
2022-09-10T18:57:34.734Z,18.50
2022-09-10T19:00:20.000Z,18.50
2022-09-10T19:03:06.036Z,18.40
2022-09-10T19:05:51.940Z,18.40
2022-09-10T19:08:38.907Z,18.30
2022-09-10T19:11:27.676Z,18.20
2022-09-10T19:14:32.703Z,18.20
2022-09-10T19:17:19.213Z,17.90
2022-09-10T19:20:05.135Z,17.80
2022-09-10T19:22:50.448Z,17.60
2022-09-10T19:25:35.867Z,17.60
2022-09-10T19:28:21.746Z,17.50
2022-09-10T19:31:08.345Z,17.50
2022-09-10T19:33:58.738Z,17.50
2022-09-10T19:36:44.675Z,17.60
2022-09-10T19:39:29.796Z,17.60
2022-09-10T19:42:15.160Z,17.60
2022-09-10T19:45:00.593Z,17.70
2022-09-10T19:47:46.050Z,17.80
2022-09-10T19:50:31.608Z,17.90
2022-09-10T19:53:16.914Z,17.90
2022-09-10T19:56:20.219Z,17.90
2022-09-10T19:59:08.770Z,17.90
2022-09-10T20:01:53.928Z,17.90
2022-09-10T20:04:39.217Z,17.90
2022-09-10T20:07:25.056Z,17.80
2022-09-10T20:10:10.653Z,17.80
2022-09-10T20:12:56.544Z,17.80
2022-09-10T20:15:45.422Z,18.00
2022-09-10T20:18:32.551Z,18.00
2022-09-10T20:21:23.159Z,18.10
2022-09-10T20:24:08.880Z,18.00
2022-09-10T20:26:54.359Z,18.10
2022-09-10T20:29:41.405Z,18.10
2022-09-10T20:32:27.320Z,18.10
2022-09-10T20:35:13.197Z,18.20
2022-09-10T20:37:58.445Z,18.00
2022-09-10T20:40:43.937Z,17.90
2022-09-10T20:43:29.587Z,17.70
2022-09-10T20:46:16.997Z,17.70
2022-09-10T20:49:05.471Z,17.60
2022-09-10T20:51:50.852Z,17.60
2022-09-10T20:54:35.958Z,17.60
2022-09-10T20:57:22.720Z,17.70
2022-09-10T21:00:08.624Z,17.70
2022-09-10T21:02:53.987Z,17.80
2022-09-10T21:05:39.887Z,17.90
2022-09-10T21:08:25.365Z,17.90
2022-09-10T21:11:12.583Z,18.00
2022-09-10T21:13:59.981Z,18.00
2022-09-10T21:16:47.124Z,18.00
2022-09-10T21:19:32.222Z,18.00
2022-09-10T21:22:17.614Z,18.20
2022-09-10T21:25:02.959Z,18.20
2022-09-10T21:27:48.315Z,18.00
2022-09-10T21:30:33.812Z,17.90
2022-09-10T21:33:19.801Z,17.90
2022-09-10T21:36:12.209Z,17.90
2022-09-10T21:38:59.208Z,17.80
2022-09-10T21:41:49.568Z,17.70
2022-09-10T21:44:34.692Z,17.60
2022-09-10T21:47:20.071Z,17.60
2022-09-10T21:50:05.764Z,17.70
2022-09-10T21:52:51.063Z,17.70
2022-09-10T21:55:37.024Z,17.70
2022-09-10T21:58:23.103Z,17.70
2022-09-10T22:01:18.481Z,17.70
2022-09-10T22:04:04.034Z,17.60
2022-09-10T22:06:49.634Z,17.60
2022-09-10T22:09:34.576Z,17.60
2022-09-10T22:12:20.267Z,17.70
2022-09-10T22:15:06.650Z,17.70
2022-09-10T22:17:51.844Z,17.70
2022-09-10T22:20:37.212Z,17.70
2022-09-10T22:23:22.588Z,17.60
2022-09-10T22:26:16.347Z,17.70
2022-09-10T22:29:03.248Z,17.70
2022-09-10T22:31:49.624Z,17.70
2022-09-10T22:34:34.842Z,17.60
2022-09-10T22:37:20.371Z,17.70
2022-09-10T22:40:05.977Z,17.70
2022-09-10T22:42:51.855Z,17.60
2022-09-10T22:45:37.009Z,17.60
2022-09-10T22:48:22.446Z,17.60
2022-09-10T22:51:11.334Z,17.70
2022-09-10T22:53:57.966Z,17.70
2022-09-10T22:56:44.481Z,17.60
2022-09-10T22:59:29.988Z,17.60
2022-09-10T23:02:15.615Z,17.70
2022-09-10T23:05:01.378Z,17.60
2022-09-10T23:07:49.326Z,17.60
2022-09-10T23:10:34.507Z,17.70
2022-09-10T23:13:20.894Z,17.70
2022-09-10T23:16:14.854Z,17.70
2022-09-10T23:19:03.938Z,17.70
2022-09-10T23:21:51.442Z,17.70
2022-09-10T23:24:36.445Z,17.70
2022-09-10T23:27:23.206Z,17.70
2022-09-10T23:30:08.707Z,17.60
2022-09-10T23:32:54.506Z,17.60
2022-09-10T23:35:39.958Z,17.60
2022-09-10T23:38:25.992Z,17.60
2022-09-10T23:41:12.353Z,17.60
2022-09-10T23:43:58.089Z,17.60
2022-09-10T23:46:44.563Z,17.60
2022-09-10T23:49:30.061Z,17.60
2022-09-10T23:52:15.783Z,17.60
2022-09-10T23:55:00.843Z,17.60
2022-09-10T23:57:47.176Z,17.60
